<?xml version="1.0" encoding="UTF-8" standalone="no" ?>
<gpx xmlns="http://www.topografix.com/GPX/1/1" xmlns:xsi="http://www.w3.org/2001/XMLSchema-instance" xsi:schemaLocation="http://www.topografix.com/GPX/1/1 http://www.topografix.com/GPX/1/1/gpx.xsd" version="1.1" creator="VisuGPX - https://www.visugpx.com">
  <metadata>
    <name>2026-03-19-46-Maxou</name>
    <desc><![CDATA[Randonnée de 11km pour environ 240m de dénivelé positif. deux belles montées en sous bois sur des sentiers pierreux, quelques gariottes et une fontaine lavoir sur le parcours, de belles vues sur la vallée du ruisseau de Maxou. Charmant village avec son église et mur clocher.]]></desc>
  </metadata>
  <trk>
    <name><![CDATA[MAXOU 11KM-23575596]]></name>
    <trkseg>
      <trkpt lat="44.53647" lon="1.443">
        <ele>216</ele>
        <time>2026-03-17T09:39:08Z</time>
      </trkpt>
      <trkpt lat="44.53645" lon="1.44292">
        <ele>216</ele>
        <time>2026-03-17T09:39:16Z</time>
      </trkpt>
      <trkpt lat="44.53649" lon="1.44293">
        <ele>216</ele>
        <time>2026-03-17T09:39:21Z</time>
      </trkpt>
      <trkpt lat="44.53636" lon="1.44296">
        <ele>217</ele>
        <time>2026-03-17T09:39:39Z</time>
      </trkpt>
      <trkpt lat="44.53624" lon="1.44293">
        <ele>218</ele>
        <time>2026-03-17T09:39:55Z</time>
      </trkpt>
      <trkpt lat="44.53625" lon="1.4429">
        <ele>218</ele>
        <time>2026-03-17T09:39:58Z</time>
      </trkpt>
      <trkpt lat="44.53629" lon="1.44292">
        <ele>217</ele>
        <time>2026-03-17T09:40:04Z</time>
      </trkpt>
      <trkpt lat="44.53627" lon="1.44304">
        <ele>217</ele>
        <time>2026-03-17T09:40:16Z</time>
      </trkpt>
      <trkpt lat="44.53632" lon="1.44315">
        <ele>216</ele>
        <time>2026-03-17T09:40:28Z</time>
      </trkpt>
      <trkpt lat="44.53623" lon="1.44342">
        <ele>215</ele>
        <time>2026-03-17T09:40:57Z</time>
      </trkpt>
      <trkpt lat="44.53616" lon="1.4435">
        <ele>215</ele>
        <time>2026-03-17T09:41:09Z</time>
      </trkpt>
      <trkpt lat="44.5362" lon="1.44361">
        <ele>215</ele>
        <time>2026-03-17T09:41:20Z</time>
      </trkpt>
      <trkpt lat="44.53628" lon="1.44371">
        <ele>214</ele>
        <time>2026-03-17T09:41:35Z</time>
      </trkpt>
      <trkpt lat="44.5363" lon="1.44387">
        <ele>214</ele>
        <time>2026-03-17T09:41:50Z</time>
      </trkpt>
      <trkpt lat="44.53635" lon="1.44396">
        <ele>213</ele>
        <time>2026-03-17T09:42:01Z</time>
      </trkpt>
      <trkpt lat="44.53644" lon="1.44398">
        <ele>213</ele>
        <time>2026-03-17T09:42:13Z</time>
      </trkpt>
      <trkpt lat="44.53657" lon="1.4442">
        <ele>212</ele>
        <time>2026-03-17T09:42:40Z</time>
      </trkpt>
      <trkpt lat="44.53667" lon="1.44431">
        <ele>212</ele>
        <time>2026-03-17T09:42:57Z</time>
      </trkpt>
      <trkpt lat="44.5368" lon="1.4446">
        <ele>214</ele>
        <time>2026-03-17T09:43:30Z</time>
      </trkpt>
      <trkpt lat="44.53682" lon="1.44474">
        <ele>214</ele>
        <time>2026-03-17T09:43:43Z</time>
      </trkpt>
      <trkpt lat="44.53677" lon="1.44534">
        <ele>218</ele>
        <time>2026-03-17T09:44:41Z</time>
      </trkpt>
      <trkpt lat="44.53679" lon="1.44546">
        <ele>218</ele>
        <time>2026-03-17T09:44:53Z</time>
      </trkpt>
      <trkpt lat="44.53669" lon="1.44573">
        <ele>221</ele>
        <time>2026-03-17T09:45:22Z</time>
      </trkpt>
      <trkpt lat="44.53672" lon="1.44596">
        <ele>221</ele>
        <time>2026-03-17T09:45:44Z</time>
      </trkpt>
      <trkpt lat="44.53663" lon="1.44622">
        <ele>223</ele>
        <time>2026-03-17T09:46:11Z</time>
      </trkpt>
      <trkpt lat="44.53655" lon="1.44637">
        <ele>224</ele>
        <time>2026-03-17T09:46:29Z</time>
      </trkpt>
      <trkpt lat="44.53647" lon="1.44645">
        <ele>226</ele>
        <time>2026-03-17T09:46:42Z</time>
      </trkpt>
      <trkpt lat="44.53631" lon="1.44631">
        <ele>228</ele>
        <time>2026-03-17T09:47:07Z</time>
      </trkpt>
      <trkpt lat="44.53624" lon="1.44628">
        <ele>230</ele>
        <time>2026-03-17T09:47:17Z</time>
      </trkpt>
      <trkpt lat="44.53618" lon="1.44658">
        <ele>231</ele>
        <time>2026-03-17T09:47:47Z</time>
      </trkpt>
      <trkpt lat="44.536" lon="1.44683">
        <ele>234</ele>
        <time>2026-03-17T09:48:21Z</time>
      </trkpt>
      <trkpt lat="44.53559" lon="1.44714">
        <ele>240</ele>
        <time>2026-03-17T09:49:23Z</time>
      </trkpt>
      <trkpt lat="44.53503" lon="1.44771">
        <ele>248</ele>
        <time>2026-03-17T09:50:55Z</time>
      </trkpt>
      <trkpt lat="44.53485" lon="1.448">
        <ele>247</ele>
        <time>2026-03-17T09:51:32Z</time>
      </trkpt>
      <trkpt lat="44.53475" lon="1.44841">
        <ele>248</ele>
        <time>2026-03-17T09:52:13Z</time>
      </trkpt>
      <trkpt lat="44.53472" lon="1.44881">
        <ele>251</ele>
        <time>2026-03-17T09:52:51Z</time>
      </trkpt>
      <trkpt lat="44.53482" lon="1.44921">
        <ele>255</ele>
        <time>2026-03-17T09:53:32Z</time>
      </trkpt>
      <trkpt lat="44.53488" lon="1.44955">
        <ele>258</ele>
        <time>2026-03-17T09:54:05Z</time>
      </trkpt>
      <trkpt lat="44.53487" lon="1.44964">
        <ele>259</ele>
        <time>2026-03-17T09:54:14Z</time>
      </trkpt>
      <trkpt lat="44.53472" lon="1.44979">
        <ele>259</ele>
        <time>2026-03-17T09:54:38Z</time>
      </trkpt>
      <trkpt lat="44.53464" lon="1.45">
        <ele>261</ele>
        <time>2026-03-17T09:55:01Z</time>
      </trkpt>
      <trkpt lat="44.53446" lon="1.45027">
        <ele>263</ele>
        <time>2026-03-17T09:55:36Z</time>
      </trkpt>
      <trkpt lat="44.53416" lon="1.45107">
        <ele>271</ele>
        <time>2026-03-17T09:57:02Z</time>
      </trkpt>
      <trkpt lat="44.53399" lon="1.45165">
        <ele>270</ele>
        <time>2026-03-17T09:58:02Z</time>
      </trkpt>
      <trkpt lat="44.53393" lon="1.45242">
        <ele>272</ele>
        <time>2026-03-17T09:59:15Z</time>
      </trkpt>
      <trkpt lat="44.53383" lon="1.45281">
        <ele>274</ele>
        <time>2026-03-17T09:59:55Z</time>
      </trkpt>
      <trkpt lat="44.53372" lon="1.45352">
        <ele>279</ele>
        <time>2026-03-17T10:01:04Z</time>
      </trkpt>
      <trkpt lat="44.53355" lon="1.45412">
        <ele>288</ele>
        <time>2026-03-17T10:02:05Z</time>
      </trkpt>
      <trkpt lat="44.53337" lon="1.45442">
        <ele>293</ele>
        <time>2026-03-17T10:02:42Z</time>
      </trkpt>
      <trkpt lat="44.53326" lon="1.45467">
        <ele>297</ele>
        <time>2026-03-17T10:03:10Z</time>
      </trkpt>
      <trkpt lat="44.53321" lon="1.45491">
        <ele>301</ele>
        <time>2026-03-17T10:03:34Z</time>
      </trkpt>
      <trkpt lat="44.53315" lon="1.45504">
        <ele>302</ele>
        <time>2026-03-17T10:03:49Z</time>
      </trkpt>
      <trkpt lat="44.53281" lon="1.45551">
        <ele>304</ele>
        <time>2026-03-17T10:04:53Z</time>
      </trkpt>
      <trkpt lat="44.53268" lon="1.45573">
        <ele>306</ele>
        <time>2026-03-17T10:05:20Z</time>
      </trkpt>
      <trkpt lat="44.53262" lon="1.45588">
        <ele>307</ele>
        <time>2026-03-17T10:05:36Z</time>
      </trkpt>
      <trkpt lat="44.53259" lon="1.45586">
        <ele>307</ele>
        <time>2026-03-17T10:05:41Z</time>
      </trkpt>
      <trkpt lat="44.53263" lon="1.45582">
        <ele>307</ele>
        <time>2026-03-17T10:05:47Z</time>
      </trkpt>
      <trkpt lat="44.53257" lon="1.45596">
        <ele>308</ele>
        <time>2026-03-17T10:06:03Z</time>
      </trkpt>
      <trkpt lat="44.53242" lon="1.45613">
        <ele>309</ele>
        <time>2026-03-17T10:06:28Z</time>
      </trkpt>
      <trkpt lat="44.5323" lon="1.45642">
        <ele>310</ele>
        <time>2026-03-17T10:07:00Z</time>
      </trkpt>
      <trkpt lat="44.53225" lon="1.45669">
        <ele>311</ele>
        <time>2026-03-17T10:07:27Z</time>
      </trkpt>
      <trkpt lat="44.53225" lon="1.4569">
        <ele>311</ele>
        <time>2026-03-17T10:07:47Z</time>
      </trkpt>
      <trkpt lat="44.53221" lon="1.45701">
        <ele>311</ele>
        <time>2026-03-17T10:07:59Z</time>
      </trkpt>
      <trkpt lat="44.53223" lon="1.45729">
        <ele>310</ele>
        <time>2026-03-17T10:08:25Z</time>
      </trkpt>
      <trkpt lat="44.53218" lon="1.45769">
        <ele>311</ele>
        <time>2026-03-17T10:09:04Z</time>
      </trkpt>
      <trkpt lat="44.53203" lon="1.45839">
        <ele>311</ele>
        <time>2026-03-17T10:10:14Z</time>
      </trkpt>
      <trkpt lat="44.53201" lon="1.45866">
        <ele>311</ele>
        <time>2026-03-17T10:10:39Z</time>
      </trkpt>
      <trkpt lat="44.53202" lon="1.45863">
        <ele>311</ele>
        <time>2026-03-17T10:10:43Z</time>
      </trkpt>
      <trkpt lat="44.53212" lon="1.45861">
        <ele>310</ele>
        <time>2026-03-17T10:10:56Z</time>
      </trkpt>
      <trkpt lat="44.53235" lon="1.45841">
        <ele>310</ele>
        <time>2026-03-17T10:11:32Z</time>
      </trkpt>
      <trkpt lat="44.53246" lon="1.45836">
        <ele>309</ele>
        <time>2026-03-17T10:11:48Z</time>
      </trkpt>
      <trkpt lat="44.53265" lon="1.45821">
        <ele>308</ele>
        <time>2026-03-17T10:12:17Z</time>
      </trkpt>
      <trkpt lat="44.53275" lon="1.45821">
        <ele>308</ele>
        <time>2026-03-17T10:12:30Z</time>
      </trkpt>
      <trkpt lat="44.53284" lon="1.45816">
        <ele>307</ele>
        <time>2026-03-17T10:12:43Z</time>
      </trkpt>
      <trkpt lat="44.53322" lon="1.45763">
        <ele>305</ele>
        <time>2026-03-17T10:13:54Z</time>
      </trkpt>
      <trkpt lat="44.53334" lon="1.45762">
        <ele>305</ele>
        <time>2026-03-17T10:14:10Z</time>
      </trkpt>
      <trkpt lat="44.53344" lon="1.45765">
        <ele>304</ele>
        <time>2026-03-17T10:14:24Z</time>
      </trkpt>
      <trkpt lat="44.53372" lon="1.45783">
        <ele>301</ele>
        <time>2026-03-17T10:15:05Z</time>
      </trkpt>
      <trkpt lat="44.53377" lon="1.45791">
        <ele>301</ele>
        <time>2026-03-17T10:15:15Z</time>
      </trkpt>
      <trkpt lat="44.53382" lon="1.45817">
        <ele>299</ele>
        <time>2026-03-17T10:15:41Z</time>
      </trkpt>
      <trkpt lat="44.53379" lon="1.45855">
        <ele>297</ele>
        <time>2026-03-17T10:16:17Z</time>
      </trkpt>
      <trkpt lat="44.53364" lon="1.45903">
        <ele>294</ele>
        <time>2026-03-17T10:17:07Z</time>
      </trkpt>
      <trkpt lat="44.5335" lon="1.45929">
        <ele>293</ele>
        <time>2026-03-17T10:17:38Z</time>
      </trkpt>
      <trkpt lat="44.53342" lon="1.45954">
        <ele>291</ele>
        <time>2026-03-17T10:18:04Z</time>
      </trkpt>
      <trkpt lat="44.53334" lon="1.45967">
        <ele>290</ele>
        <time>2026-03-17T10:18:21Z</time>
      </trkpt>
      <trkpt lat="44.53325" lon="1.45971">
        <ele>290</ele>
        <time>2026-03-17T10:18:33Z</time>
      </trkpt>
      <trkpt lat="44.53314" lon="1.45972">
        <ele>292</ele>
        <time>2026-03-17T10:18:48Z</time>
      </trkpt>
      <trkpt lat="44.53303" lon="1.4598">
        <ele>292</ele>
        <time>2026-03-17T10:19:04Z</time>
      </trkpt>
      <trkpt lat="44.533" lon="1.45977">
        <ele>293</ele>
        <time>2026-03-17T10:19:09Z</time>
      </trkpt>
      <trkpt lat="44.53291" lon="1.45981">
        <ele>294</ele>
        <time>2026-03-17T10:19:22Z</time>
      </trkpt>
      <trkpt lat="44.53285" lon="1.45977">
        <ele>295</ele>
        <time>2026-03-17T10:19:31Z</time>
      </trkpt>
      <trkpt lat="44.53295" lon="1.45977">
        <ele>294</ele>
        <time>2026-03-17T10:19:44Z</time>
      </trkpt>
      <trkpt lat="44.53294" lon="1.45982">
        <ele>293</ele>
        <time>2026-03-17T10:19:49Z</time>
      </trkpt>
      <trkpt lat="44.5329" lon="1.45984">
        <ele>294</ele>
        <time>2026-03-17T10:19:55Z</time>
      </trkpt>
      <trkpt lat="44.53293" lon="1.4598">
        <ele>294</ele>
        <time>2026-03-17T10:20:00Z</time>
      </trkpt>
      <trkpt lat="44.53304" lon="1.4598">
        <ele>292</ele>
        <time>2026-03-17T10:20:15Z</time>
      </trkpt>
      <trkpt lat="44.5332" lon="1.45992">
        <ele>288</ele>
        <time>2026-03-17T10:20:39Z</time>
      </trkpt>
      <trkpt lat="44.53316" lon="1.45989">
        <ele>289</ele>
        <time>2026-03-17T10:20:45Z</time>
      </trkpt>
      <trkpt lat="44.53339" lon="1.45996">
        <ele>284</ele>
        <time>2026-03-17T10:21:17Z</time>
      </trkpt>
      <trkpt lat="44.53371" lon="1.45986">
        <ele>279</ele>
        <time>2026-03-17T10:22:00Z</time>
      </trkpt>
      <trkpt lat="44.53388" lon="1.45974">
        <ele>278</ele>
        <time>2026-03-17T10:22:26Z</time>
      </trkpt>
      <trkpt lat="44.53393" lon="1.45976">
        <ele>276</ele>
        <time>2026-03-17T10:22:33Z</time>
      </trkpt>
      <trkpt lat="44.53405" lon="1.45963">
        <ele>276</ele>
        <time>2026-03-17T10:22:53Z</time>
      </trkpt>
      <trkpt lat="44.53441" lon="1.45939">
        <ele>273</ele>
        <time>2026-03-17T10:23:46Z</time>
      </trkpt>
      <trkpt lat="44.5346" lon="1.45935">
        <ele>269</ele>
        <time>2026-03-17T10:24:12Z</time>
      </trkpt>
      <trkpt lat="44.53466" lon="1.4593">
        <ele>269</ele>
        <time>2026-03-17T10:24:21Z</time>
      </trkpt>
      <trkpt lat="44.53484" lon="1.45923">
        <ele>265</ele>
        <time>2026-03-17T10:24:46Z</time>
      </trkpt>
      <trkpt lat="44.53495" lon="1.45916">
        <ele>262</ele>
        <time>2026-03-17T10:25:02Z</time>
      </trkpt>
      <trkpt lat="44.53514" lon="1.45912">
        <ele>260</ele>
        <time>2026-03-17T10:25:28Z</time>
      </trkpt>
      <trkpt lat="44.53532" lon="1.45902">
        <ele>258</ele>
        <time>2026-03-17T10:25:54Z</time>
      </trkpt>
      <trkpt lat="44.53544" lon="1.459">
        <ele>257</ele>
        <time>2026-03-17T10:26:10Z</time>
      </trkpt>
      <trkpt lat="44.53552" lon="1.45905">
        <ele>256</ele>
        <time>2026-03-17T10:26:21Z</time>
      </trkpt>
      <trkpt lat="44.53567" lon="1.45903">
        <ele>254</ele>
        <time>2026-03-17T10:26:42Z</time>
      </trkpt>
      <trkpt lat="44.53598" lon="1.45888">
        <ele>252</ele>
        <time>2026-03-17T10:27:25Z</time>
      </trkpt>
      <trkpt lat="44.5363" lon="1.45896">
        <ele>252</ele>
        <time>2026-03-17T10:28:09Z</time>
      </trkpt>
      <trkpt lat="44.53641" lon="1.4589">
        <ele>252</ele>
        <time>2026-03-17T10:28:24Z</time>
      </trkpt>
      <trkpt lat="44.53649" lon="1.45879">
        <ele>251</ele>
        <time>2026-03-17T10:28:39Z</time>
      </trkpt>
      <trkpt lat="44.53648" lon="1.45864">
        <ele>250</ele>
        <time>2026-03-17T10:28:54Z</time>
      </trkpt>
      <trkpt lat="44.53656" lon="1.45834">
        <ele>249</ele>
        <time>2026-03-17T10:29:24Z</time>
      </trkpt>
      <trkpt lat="44.53664" lon="1.4582">
        <ele>248</ele>
        <time>2026-03-17T10:29:41Z</time>
      </trkpt>
      <trkpt lat="44.53683" lon="1.45802">
        <ele>251</ele>
        <time>2026-03-17T10:30:12Z</time>
      </trkpt>
      <trkpt lat="44.53689" lon="1.4579">
        <ele>251</ele>
        <time>2026-03-17T10:30:26Z</time>
      </trkpt>
      <trkpt lat="44.53707" lon="1.45768">
        <ele>252</ele>
        <time>2026-03-17T10:30:58Z</time>
      </trkpt>
      <trkpt lat="44.53732" lon="1.45721">
        <ele>251</ele>
        <time>2026-03-17T10:31:53Z</time>
      </trkpt>
      <trkpt lat="44.5375" lon="1.45679">
        <ele>248</ele>
        <time>2026-03-17T10:32:40Z</time>
      </trkpt>
      <trkpt lat="44.53761" lon="1.45629">
        <ele>248</ele>
        <time>2026-03-17T10:33:30Z</time>
      </trkpt>
      <trkpt lat="44.53765" lon="1.45568">
        <ele>246</ele>
        <time>2026-03-17T10:34:28Z</time>
      </trkpt>
      <trkpt lat="44.5377" lon="1.45536">
        <ele>245</ele>
        <time>2026-03-17T10:34:59Z</time>
      </trkpt>
      <trkpt lat="44.53805" lon="1.45436">
        <ele>243</ele>
        <time>2026-03-17T10:36:45Z</time>
      </trkpt>
      <trkpt lat="44.53833" lon="1.45388">
        <ele>239</ele>
        <time>2026-03-17T10:37:44Z</time>
      </trkpt>
      <trkpt lat="44.53851" lon="1.45366">
        <ele>239</ele>
        <time>2026-03-17T10:38:16Z</time>
      </trkpt>
      <trkpt lat="44.53871" lon="1.4533">
        <ele>235</ele>
        <time>2026-03-17T10:38:59Z</time>
      </trkpt>
      <trkpt lat="44.53888" lon="1.45308">
        <ele>234</ele>
        <time>2026-03-17T10:39:30Z</time>
      </trkpt>
      <trkpt lat="44.53892" lon="1.45296">
        <ele>233</ele>
        <time>2026-03-17T10:39:43Z</time>
      </trkpt>
      <trkpt lat="44.53901" lon="1.45286">
        <ele>232</ele>
        <time>2026-03-17T10:39:58Z</time>
      </trkpt>
      <trkpt lat="44.53916" lon="1.45262">
        <ele>229</ele>
        <time>2026-03-17T10:40:29Z</time>
      </trkpt>
      <trkpt lat="44.53924" lon="1.45257">
        <ele>228</ele>
        <time>2026-03-17T10:40:40Z</time>
      </trkpt>
      <trkpt lat="44.53922" lon="1.4524">
        <ele>227</ele>
        <time>2026-03-17T10:40:57Z</time>
      </trkpt>
      <trkpt lat="44.53925" lon="1.45239">
        <ele>227</ele>
        <time>2026-03-17T10:41:01Z</time>
      </trkpt>
      <trkpt lat="44.53922" lon="1.45236">
        <ele>227</ele>
        <time>2026-03-17T10:41:06Z</time>
      </trkpt>
      <trkpt lat="44.53927" lon="1.45233">
        <ele>227</ele>
        <time>2026-03-17T10:41:13Z</time>
      </trkpt>
      <trkpt lat="44.53927" lon="1.45236">
        <ele>227</ele>
        <time>2026-03-17T10:41:16Z</time>
      </trkpt>
      <trkpt lat="44.53946" lon="1.45234">
        <ele>228</ele>
        <time>2026-03-17T10:41:41Z</time>
      </trkpt>
      <trkpt lat="44.53957" lon="1.45243">
        <ele>228</ele>
        <time>2026-03-17T10:41:58Z</time>
      </trkpt>
      <trkpt lat="44.53979" lon="1.45272">
        <ele>230</ele>
        <time>2026-03-17T10:42:39Z</time>
      </trkpt>
      <trkpt lat="44.53986" lon="1.45278">
        <ele>231</ele>
        <time>2026-03-17T10:42:49Z</time>
      </trkpt>
      <trkpt lat="44.54026" lon="1.45342">
        <ele>235</ele>
        <time>2026-03-17T10:44:10Z</time>
      </trkpt>
      <trkpt lat="44.54036" lon="1.45348">
        <ele>235</ele>
        <time>2026-03-17T10:44:25Z</time>
      </trkpt>
      <trkpt lat="44.54044" lon="1.45362">
        <ele>236</ele>
        <time>2026-03-17T10:44:42Z</time>
      </trkpt>
      <trkpt lat="44.54068" lon="1.45393">
        <ele>236</ele>
        <time>2026-03-17T10:45:26Z</time>
      </trkpt>
      <trkpt lat="44.54099" lon="1.45424">
        <ele>236</ele>
        <time>2026-03-17T10:46:16Z</time>
      </trkpt>
      <trkpt lat="44.54103" lon="1.45433">
        <ele>237</ele>
        <time>2026-03-17T10:46:26Z</time>
      </trkpt>
      <trkpt lat="44.54151" lon="1.45477">
        <ele>236</ele>
        <time>2026-03-17T10:47:43Z</time>
      </trkpt>
      <trkpt lat="44.54159" lon="1.45487">
        <ele>235</ele>
        <time>2026-03-17T10:47:57Z</time>
      </trkpt>
      <trkpt lat="44.5417" lon="1.45494">
        <ele>234</ele>
        <time>2026-03-17T10:48:13Z</time>
      </trkpt>
      <trkpt lat="44.54188" lon="1.45527">
        <ele>237</ele>
        <time>2026-03-17T10:48:53Z</time>
      </trkpt>
      <trkpt lat="44.54212" lon="1.45563">
        <ele>238</ele>
        <time>2026-03-17T10:49:40Z</time>
      </trkpt>
      <trkpt lat="44.54231" lon="1.45602">
        <ele>237</ele>
        <time>2026-03-17T10:50:25Z</time>
      </trkpt>
      <trkpt lat="44.5424" lon="1.4561">
        <ele>237</ele>
        <time>2026-03-17T10:50:39Z</time>
      </trkpt>
      <trkpt lat="44.54261" lon="1.45649">
        <ele>239</ele>
        <time>2026-03-17T10:51:25Z</time>
      </trkpt>
      <trkpt lat="44.54279" lon="1.45674">
        <ele>242</ele>
        <time>2026-03-17T10:51:59Z</time>
      </trkpt>
      <trkpt lat="44.5429" lon="1.45715">
        <ele>244</ele>
        <time>2026-03-17T10:52:41Z</time>
      </trkpt>
      <trkpt lat="44.54302" lon="1.45745">
        <ele>244</ele>
        <time>2026-03-17T10:53:14Z</time>
      </trkpt>
      <trkpt lat="44.54314" lon="1.45786">
        <ele>244</ele>
        <time>2026-03-17T10:53:56Z</time>
      </trkpt>
      <trkpt lat="44.54317" lon="1.45818">
        <ele>244</ele>
        <time>2026-03-17T10:54:26Z</time>
      </trkpt>
      <trkpt lat="44.54323" lon="1.45848">
        <ele>245</ele>
        <time>2026-03-17T10:54:56Z</time>
      </trkpt>
      <trkpt lat="44.54377" lon="1.46012">
        <ele>253</ele>
        <time>2026-03-17T10:57:48Z</time>
      </trkpt>
      <trkpt lat="44.5438" lon="1.46041">
        <ele>251</ele>
        <time>2026-03-17T10:58:16Z</time>
      </trkpt>
      <trkpt lat="44.54378" lon="1.46048">
        <ele>251</ele>
        <time>2026-03-17T10:58:23Z</time>
      </trkpt>
      <trkpt lat="44.54376" lon="1.46048">
        <ele>251</ele>
        <time>2026-03-17T10:58:26Z</time>
      </trkpt>
      <trkpt lat="44.5438" lon="1.46055">
        <ele>251</ele>
        <time>2026-03-17T10:58:34Z</time>
      </trkpt>
      <trkpt lat="44.54384" lon="1.46072">
        <ele>250</ele>
        <time>2026-03-17T10:58:51Z</time>
      </trkpt>
      <trkpt lat="44.54408" lon="1.46121">
        <ele>250</ele>
        <time>2026-03-17T10:59:48Z</time>
      </trkpt>
      <trkpt lat="44.54426" lon="1.46141">
        <ele>251</ele>
        <time>2026-03-17T11:00:18Z</time>
      </trkpt>
      <trkpt lat="44.54431" lon="1.46151">
        <ele>251</ele>
        <time>2026-03-17T11:00:30Z</time>
      </trkpt>
      <trkpt lat="44.54492" lon="1.46201">
        <ele>249</ele>
        <time>2026-03-17T11:02:04Z</time>
      </trkpt>
      <trkpt lat="44.54512" lon="1.46213">
        <ele>249</ele>
        <time>2026-03-17T11:02:33Z</time>
      </trkpt>
      <trkpt lat="44.54529" lon="1.46229">
        <ele>250</ele>
        <time>2026-03-17T11:03:01Z</time>
      </trkpt>
      <trkpt lat="44.54545" lon="1.46251">
        <ele>251</ele>
        <time>2026-03-17T11:03:30Z</time>
      </trkpt>
      <trkpt lat="44.54556" lon="1.46247">
        <ele>251</ele>
        <time>2026-03-17T11:03:46Z</time>
      </trkpt>
      <trkpt lat="44.54572" lon="1.46235">
        <ele>252</ele>
        <time>2026-03-17T11:04:10Z</time>
      </trkpt>
      <trkpt lat="44.54589" lon="1.46217">
        <ele>255</ele>
        <time>2026-03-17T11:04:38Z</time>
      </trkpt>
      <trkpt lat="44.54599" lon="1.46216">
        <ele>258</ele>
        <time>2026-03-17T11:04:52Z</time>
      </trkpt>
      <trkpt lat="44.54605" lon="1.46225">
        <ele>260</ele>
        <time>2026-03-17T11:05:03Z</time>
      </trkpt>
      <trkpt lat="44.54613" lon="1.46252">
        <ele>262</ele>
        <time>2026-03-17T11:05:31Z</time>
      </trkpt>
      <trkpt lat="44.54614" lon="1.46282">
        <ele>262</ele>
        <time>2026-03-17T11:06:00Z</time>
      </trkpt>
      <trkpt lat="44.5462" lon="1.46313">
        <ele>264</ele>
        <time>2026-03-17T11:06:30Z</time>
      </trkpt>
      <trkpt lat="44.54619" lon="1.46375">
        <ele>263</ele>
        <time>2026-03-17T11:07:29Z</time>
      </trkpt>
      <trkpt lat="44.54626" lon="1.46404">
        <ele>265</ele>
        <time>2026-03-17T11:07:58Z</time>
      </trkpt>
      <trkpt lat="44.54629" lon="1.46479">
        <ele>264</ele>
        <time>2026-03-17T11:09:10Z</time>
      </trkpt>
      <trkpt lat="44.54637" lon="1.46521">
        <ele>263</ele>
        <time>2026-03-17T11:09:51Z</time>
      </trkpt>
      <trkpt lat="44.54648" lon="1.46547">
        <ele>263</ele>
        <time>2026-03-17T11:10:20Z</time>
      </trkpt>
      <trkpt lat="44.54656" lon="1.46559">
        <ele>262</ele>
        <time>2026-03-17T11:10:36Z</time>
      </trkpt>
      <trkpt lat="44.54689" lon="1.46596">
        <ele>264</ele>
        <time>2026-03-17T11:11:32Z</time>
      </trkpt>
      <trkpt lat="44.54709" lon="1.46627">
        <ele>268</ele>
        <time>2026-03-17T11:12:12Z</time>
      </trkpt>
      <trkpt lat="44.54722" lon="1.46682">
        <ele>267</ele>
        <time>2026-03-17T11:13:07Z</time>
      </trkpt>
      <trkpt lat="44.54731" lon="1.46768">
        <ele>264</ele>
        <time>2026-03-17T11:14:29Z</time>
      </trkpt>
      <trkpt lat="44.54735" lon="1.46781">
        <ele>264</ele>
        <time>2026-03-17T11:14:43Z</time>
      </trkpt>
      <trkpt lat="44.54741" lon="1.46787">
        <ele>263</ele>
        <time>2026-03-17T11:14:53Z</time>
      </trkpt>
      <trkpt lat="44.54752" lon="1.4679">
        <ele>263</ele>
        <time>2026-03-17T11:15:08Z</time>
      </trkpt>
      <trkpt lat="44.54759" lon="1.468">
        <ele>265</ele>
        <time>2026-03-17T11:15:21Z</time>
      </trkpt>
      <trkpt lat="44.54769" lon="1.46807">
        <ele>266</ele>
        <time>2026-03-17T11:15:36Z</time>
      </trkpt>
      <trkpt lat="44.54776" lon="1.4682">
        <ele>268</ele>
        <time>2026-03-17T11:15:51Z</time>
      </trkpt>
      <trkpt lat="44.5479" lon="1.46836">
        <ele>271</ele>
        <time>2026-03-17T11:16:16Z</time>
      </trkpt>
      <trkpt lat="44.54808" lon="1.46875">
        <ele>275</ele>
        <time>2026-03-17T11:17:00Z</time>
      </trkpt>
      <trkpt lat="44.54828" lon="1.46936">
        <ele>276</ele>
        <time>2026-03-17T11:18:04Z</time>
      </trkpt>
      <trkpt lat="44.54846" lon="1.46973">
        <ele>275</ele>
        <time>2026-03-17T11:18:46Z</time>
      </trkpt>
      <trkpt lat="44.54855" lon="1.47005">
        <ele>274</ele>
        <time>2026-03-17T11:19:19Z</time>
      </trkpt>
      <trkpt lat="44.54872" lon="1.47085">
        <ele>281</ele>
        <time>2026-03-17T11:20:38Z</time>
      </trkpt>
      <trkpt lat="44.54872" lon="1.4712">
        <ele>285</ele>
        <time>2026-03-17T11:21:12Z</time>
      </trkpt>
      <trkpt lat="44.54877" lon="1.47144">
        <ele>288</ele>
        <time>2026-03-17T11:21:35Z</time>
      </trkpt>
      <trkpt lat="44.54878" lon="1.4717">
        <ele>290</ele>
        <time>2026-03-17T11:22:00Z</time>
      </trkpt>
      <trkpt lat="44.54881" lon="1.47185">
        <ele>291</ele>
        <time>2026-03-17T11:22:15Z</time>
      </trkpt>
      <trkpt lat="44.5488" lon="1.472">
        <ele>292</ele>
        <time>2026-03-17T11:22:29Z</time>
      </trkpt>
      <trkpt lat="44.54887" lon="1.47238">
        <ele>294</ele>
        <time>2026-03-17T11:23:07Z</time>
      </trkpt>
      <trkpt lat="44.54886" lon="1.47279">
        <ele>296</ele>
        <time>2026-03-17T11:23:46Z</time>
      </trkpt>
      <trkpt lat="44.54877" lon="1.4732">
        <ele>298</ele>
        <time>2026-03-17T11:24:26Z</time>
      </trkpt>
      <trkpt lat="44.54869" lon="1.4734">
        <ele>298</ele>
        <time>2026-03-17T11:24:48Z</time>
      </trkpt>
      <trkpt lat="44.54864" lon="1.4737">
        <ele>298</ele>
        <time>2026-03-17T11:25:18Z</time>
      </trkpt>
      <trkpt lat="44.54859" lon="1.47383">
        <ele>298</ele>
        <time>2026-03-17T11:25:32Z</time>
      </trkpt>
      <trkpt lat="44.54868" lon="1.47434">
        <ele>301</ele>
        <time>2026-03-17T11:26:22Z</time>
      </trkpt>
      <trkpt lat="44.54863" lon="1.47524">
        <ele>306</ele>
        <time>2026-03-17T11:27:47Z</time>
      </trkpt>
      <trkpt lat="44.54878" lon="1.47585">
        <ele>313</ele>
        <time>2026-03-17T11:28:49Z</time>
      </trkpt>
      <trkpt lat="44.54877" lon="1.47625">
        <ele>315</ele>
        <time>2026-03-17T11:29:27Z</time>
      </trkpt>
      <trkpt lat="44.54879" lon="1.47648">
        <ele>317</ele>
        <time>2026-03-17T11:29:49Z</time>
      </trkpt>
      <trkpt lat="44.54887" lon="1.47676">
        <ele>320</ele>
        <time>2026-03-17T11:30:18Z</time>
      </trkpt>
      <trkpt lat="44.54885" lon="1.47686">
        <ele>321</ele>
        <time>2026-03-17T11:30:27Z</time>
      </trkpt>
      <trkpt lat="44.54889" lon="1.47694">
        <ele>322</ele>
        <time>2026-03-17T11:30:37Z</time>
      </trkpt>
      <trkpt lat="44.54892" lon="1.47719">
        <ele>324</ele>
        <time>2026-03-17T11:31:01Z</time>
      </trkpt>
      <trkpt lat="44.54889" lon="1.47734">
        <ele>326</ele>
        <time>2026-03-17T11:31:16Z</time>
      </trkpt>
      <trkpt lat="44.54881" lon="1.47744">
        <ele>327</ele>
        <time>2026-03-17T11:31:30Z</time>
      </trkpt>
      <trkpt lat="44.54891" lon="1.47757">
        <ele>328</ele>
        <time>2026-03-17T11:31:48Z</time>
      </trkpt>
      <trkpt lat="44.54898" lon="1.4778">
        <ele>332</ele>
        <time>2026-03-17T11:32:12Z</time>
      </trkpt>
      <trkpt lat="44.54908" lon="1.47784">
        <ele>332</ele>
        <time>2026-03-17T11:32:26Z</time>
      </trkpt>
      <trkpt lat="44.54914" lon="1.47782">
        <ele>331</ele>
        <time>2026-03-17T11:32:34Z</time>
      </trkpt>
      <trkpt lat="44.54922" lon="1.47787">
        <ele>333</ele>
        <time>2026-03-17T11:32:46Z</time>
      </trkpt>
      <trkpt lat="44.5493" lon="1.47783">
        <ele>334</ele>
        <time>2026-03-17T11:32:57Z</time>
      </trkpt>
      <trkpt lat="44.54934" lon="1.47771">
        <ele>333</ele>
        <time>2026-03-17T11:33:10Z</time>
      </trkpt>
      <trkpt lat="44.54931" lon="1.47747">
        <ele>329</ele>
        <time>2026-03-17T11:33:33Z</time>
      </trkpt>
      <trkpt lat="44.54943" lon="1.47769">
        <ele>335</ele>
        <time>2026-03-17T11:33:59Z</time>
      </trkpt>
      <trkpt lat="44.54948" lon="1.47795">
        <ele>340</ele>
        <time>2026-03-17T11:34:25Z</time>
      </trkpt>
      <trkpt lat="44.54944" lon="1.47816">
        <ele>342</ele>
        <time>2026-03-17T11:34:45Z</time>
      </trkpt>
      <trkpt lat="44.54935" lon="1.47822">
        <ele>341</ele>
        <time>2026-03-17T11:34:59Z</time>
      </trkpt>
      <trkpt lat="44.54912" lon="1.47847">
        <ele>343</ele>
        <time>2026-03-17T11:35:38Z</time>
      </trkpt>
      <trkpt lat="44.54871" lon="1.47859">
        <ele>347</ele>
        <time>2026-03-17T11:36:33Z</time>
      </trkpt>
      <trkpt lat="44.54873" lon="1.47867">
        <ele>347</ele>
        <time>2026-03-17T11:36:42Z</time>
      </trkpt>
      <trkpt lat="44.54877" lon="1.47865">
        <ele>347</ele>
        <time>2026-03-17T11:36:47Z</time>
      </trkpt>
      <trkpt lat="44.54885" lon="1.47866">
        <ele>347</ele>
        <time>2026-03-17T11:36:58Z</time>
      </trkpt>
      <trkpt lat="44.54892" lon="1.47872">
        <ele>348</ele>
        <time>2026-03-17T11:37:09Z</time>
      </trkpt>
      <trkpt lat="44.549" lon="1.47874">
        <ele>348</ele>
        <time>2026-03-17T11:37:20Z</time>
      </trkpt>
      <trkpt lat="44.54897" lon="1.4788">
        <ele>349</ele>
        <time>2026-03-17T11:37:27Z</time>
      </trkpt>
      <trkpt lat="44.54886" lon="1.47887">
        <ele>350</ele>
        <time>2026-03-17T11:37:43Z</time>
      </trkpt>
      <trkpt lat="44.54875" lon="1.47901">
        <ele>351</ele>
        <time>2026-03-17T11:38:03Z</time>
      </trkpt>
      <trkpt lat="44.54873" lon="1.47911">
        <ele>352</ele>
        <time>2026-03-17T11:38:13Z</time>
      </trkpt>
      <trkpt lat="44.54886" lon="1.47904">
        <ele>352</ele>
        <time>2026-03-17T11:38:31Z</time>
      </trkpt>
      <trkpt lat="44.54896" lon="1.47902">
        <ele>352</ele>
        <time>2026-03-17T11:38:45Z</time>
      </trkpt>
      <trkpt lat="44.54903" lon="1.47906">
        <ele>353</ele>
        <time>2026-03-17T11:38:55Z</time>
      </trkpt>
      <trkpt lat="44.54909" lon="1.479">
        <ele>352</ele>
        <time>2026-03-17T11:39:04Z</time>
      </trkpt>
      <trkpt lat="44.54919" lon="1.47899">
        <ele>352</ele>
        <time>2026-03-17T11:39:18Z</time>
      </trkpt>
      <trkpt lat="44.54925" lon="1.47893">
        <ele>352</ele>
        <time>2026-03-17T11:39:28Z</time>
      </trkpt>
      <trkpt lat="44.54944" lon="1.47883">
        <ele>352</ele>
        <time>2026-03-17T11:39:55Z</time>
      </trkpt>
      <trkpt lat="44.54953" lon="1.47874">
        <ele>352</ele>
        <time>2026-03-17T11:40:10Z</time>
      </trkpt>
      <trkpt lat="44.54965" lon="1.47869">
        <ele>353</ele>
        <time>2026-03-17T11:40:26Z</time>
      </trkpt>
      <trkpt lat="44.54972" lon="1.47861">
        <ele>353</ele>
        <time>2026-03-17T11:40:38Z</time>
      </trkpt>
      <trkpt lat="44.5497" lon="1.47861">
        <ele>353</ele>
        <time>2026-03-17T11:40:41Z</time>
      </trkpt>
      <trkpt lat="44.54973" lon="1.47863">
        <ele>353</ele>
        <time>2026-03-17T11:40:45Z</time>
      </trkpt>
      <trkpt lat="44.54978" lon="1.47858">
        <ele>353</ele>
        <time>2026-03-17T11:40:54Z</time>
      </trkpt>
      <trkpt lat="44.55022" lon="1.47837">
        <ele>356</ele>
        <time>2026-03-17T11:41:56Z</time>
      </trkpt>
      <trkpt lat="44.55046" lon="1.47798">
        <ele>355</ele>
        <time>2026-03-17T11:42:45Z</time>
      </trkpt>
      <trkpt lat="44.55093" lon="1.47739">
        <ele>354</ele>
        <time>2026-03-17T11:44:09Z</time>
      </trkpt>
      <trkpt lat="44.55122" lon="1.4768">
        <ele>351</ele>
        <time>2026-03-17T11:45:17Z</time>
      </trkpt>
      <trkpt lat="44.5513" lon="1.47654">
        <ele>350</ele>
        <time>2026-03-17T11:45:44Z</time>
      </trkpt>
      <trkpt lat="44.55158" lon="1.47616">
        <ele>353</ele>
        <time>2026-03-17T11:46:36Z</time>
      </trkpt>
      <trkpt lat="44.55159" lon="1.47605">
        <ele>353</ele>
        <time>2026-03-17T11:46:46Z</time>
      </trkpt>
      <trkpt lat="44.55166" lon="1.47605">
        <ele>354</ele>
        <time>2026-03-17T11:46:56Z</time>
      </trkpt>
      <trkpt lat="44.55178" lon="1.47597">
        <ele>355</ele>
        <time>2026-03-17T11:47:13Z</time>
      </trkpt>
      <trkpt lat="44.55189" lon="1.47583">
        <ele>356</ele>
        <time>2026-03-17T11:47:33Z</time>
      </trkpt>
      <trkpt lat="44.55203" lon="1.47571">
        <ele>356</ele>
        <time>2026-03-17T11:47:55Z</time>
      </trkpt>
      <trkpt lat="44.55211" lon="1.47568">
        <ele>357</ele>
        <time>2026-03-17T11:48:06Z</time>
      </trkpt>
      <trkpt lat="44.55219" lon="1.47568">
        <ele>357</ele>
        <time>2026-03-17T11:48:17Z</time>
      </trkpt>
      <trkpt lat="44.55245" lon="1.47579">
        <ele>359</ele>
        <time>2026-03-17T11:48:53Z</time>
      </trkpt>
      <trkpt lat="44.55253" lon="1.47586">
        <ele>359</ele>
        <time>2026-03-17T11:49:06Z</time>
      </trkpt>
      <trkpt lat="44.55261" lon="1.47586">
        <ele>359</ele>
        <time>2026-03-17T11:49:16Z</time>
      </trkpt>
      <trkpt lat="44.55266" lon="1.47545">
        <ele>357</ele>
        <time>2026-03-17T11:49:56Z</time>
      </trkpt>
      <trkpt lat="44.55267" lon="1.47476">
        <ele>354</ele>
        <time>2026-03-17T11:51:02Z</time>
      </trkpt>
      <trkpt lat="44.55271" lon="1.47446">
        <ele>354</ele>
        <time>2026-03-17T11:51:31Z</time>
      </trkpt>
      <trkpt lat="44.55276" lon="1.47357">
        <ele>359</ele>
        <time>2026-03-17T11:52:55Z</time>
      </trkpt>
      <trkpt lat="44.55315" lon="1.47176">
        <ele>353</ele>
        <time>2026-03-17T11:55:55Z</time>
      </trkpt>
      <trkpt lat="44.55321" lon="1.47162">
        <ele>353</ele>
        <time>2026-03-17T11:56:11Z</time>
      </trkpt>
      <trkpt lat="44.55326" lon="1.47121">
        <ele>353</ele>
        <time>2026-03-17T11:56:50Z</time>
      </trkpt>
      <trkpt lat="44.55326" lon="1.47104">
        <ele>353</ele>
        <time>2026-03-17T11:57:07Z</time>
      </trkpt>
      <trkpt lat="44.55307" lon="1.47058">
        <ele>349</ele>
        <time>2026-03-17T11:57:57Z</time>
      </trkpt>
      <trkpt lat="44.55275" lon="1.47016">
        <ele>342</ele>
        <time>2026-03-17T11:58:56Z</time>
      </trkpt>
      <trkpt lat="44.55265" lon="1.46973">
        <ele>341</ele>
        <time>2026-03-17T11:59:39Z</time>
      </trkpt>
      <trkpt lat="44.55265" lon="1.46936">
        <ele>342</ele>
        <time>2026-03-17T12:00:14Z</time>
      </trkpt>
      <trkpt lat="44.55282" lon="1.46873">
        <ele>342</ele>
        <time>2026-03-17T12:01:18Z</time>
      </trkpt>
      <trkpt lat="44.55301" lon="1.46819">
        <ele>341</ele>
        <time>2026-03-17T12:02:15Z</time>
      </trkpt>
      <trkpt lat="44.55303" lon="1.46801">
        <ele>341</ele>
        <time>2026-03-17T12:02:32Z</time>
      </trkpt>
      <trkpt lat="44.553" lon="1.46786">
        <ele>340</ele>
        <time>2026-03-17T12:02:47Z</time>
      </trkpt>
      <trkpt lat="44.55301" lon="1.46734">
        <ele>339</ele>
        <time>2026-03-17T12:03:37Z</time>
      </trkpt>
      <trkpt lat="44.55308" lon="1.46687">
        <ele>340</ele>
        <time>2026-03-17T12:04:22Z</time>
      </trkpt>
      <trkpt lat="44.55307" lon="1.46672">
        <ele>341</ele>
        <time>2026-03-17T12:04:37Z</time>
      </trkpt>
      <trkpt lat="44.55323" lon="1.4661">
        <ele>338</ele>
        <time>2026-03-17T12:05:39Z</time>
      </trkpt>
      <trkpt lat="44.55327" lon="1.46581">
        <ele>337</ele>
        <time>2026-03-17T12:06:07Z</time>
      </trkpt>
      <trkpt lat="44.55307" lon="1.46581">
        <ele>337</ele>
        <time>2026-03-17T12:06:34Z</time>
      </trkpt>
      <trkpt lat="44.55252" lon="1.46555">
        <ele>336</ele>
        <time>2026-03-17T12:07:52Z</time>
      </trkpt>
      <trkpt lat="44.55231" lon="1.46547">
        <ele>335</ele>
        <time>2026-03-17T12:08:21Z</time>
      </trkpt>
      <trkpt lat="44.55222" lon="1.46547">
        <ele>335</ele>
        <time>2026-03-17T12:08:33Z</time>
      </trkpt>
      <trkpt lat="44.55212" lon="1.46543">
        <ele>335</ele>
        <time>2026-03-17T12:08:47Z</time>
      </trkpt>
      <trkpt lat="44.55187" lon="1.46521">
        <ele>334</ele>
        <time>2026-03-17T12:09:26Z</time>
      </trkpt>
      <trkpt lat="44.55135" lon="1.46493">
        <ele>331</ele>
        <time>2026-03-17T12:10:40Z</time>
      </trkpt>
      <trkpt lat="44.5511" lon="1.4649">
        <ele>329</ele>
        <time>2026-03-17T12:11:14Z</time>
      </trkpt>
      <trkpt lat="44.55059" lon="1.46495">
        <ele>325</ele>
        <time>2026-03-17T12:12:22Z</time>
      </trkpt>
      <trkpt lat="44.55026" lon="1.46479">
        <ele>321</ele>
        <time>2026-03-17T12:13:09Z</time>
      </trkpt>
      <trkpt lat="44.54991" lon="1.46453">
        <ele>321</ele>
        <time>2026-03-17T12:14:01Z</time>
      </trkpt>
      <trkpt lat="44.54982" lon="1.4644">
        <ele>322</ele>
        <time>2026-03-17T12:14:19Z</time>
      </trkpt>
      <trkpt lat="44.54971" lon="1.4643">
        <ele>323</ele>
        <time>2026-03-17T12:14:36Z</time>
      </trkpt>
      <trkpt lat="44.54959" lon="1.46423">
        <ele>324</ele>
        <time>2026-03-17T12:14:53Z</time>
      </trkpt>
      <trkpt lat="44.54947" lon="1.46417">
        <ele>325</ele>
        <time>2026-03-17T12:15:10Z</time>
      </trkpt>
      <trkpt lat="44.54928" lon="1.46416">
        <ele>326</ele>
        <time>2026-03-17T12:15:36Z</time>
      </trkpt>
      <trkpt lat="44.54905" lon="1.46407">
        <ele>327</ele>
        <time>2026-03-17T12:16:08Z</time>
      </trkpt>
      <trkpt lat="44.5488" lon="1.46396">
        <ele>327</ele>
        <time>2026-03-17T12:16:43Z</time>
      </trkpt>
      <trkpt lat="44.54852" lon="1.46378">
        <ele>328</ele>
        <time>2026-03-17T12:17:24Z</time>
      </trkpt>
      <trkpt lat="44.54829" lon="1.46342">
        <ele>329</ele>
        <time>2026-03-17T12:18:10Z</time>
      </trkpt>
      <trkpt lat="44.54818" lon="1.46313">
        <ele>328</ele>
        <time>2026-03-17T12:18:41Z</time>
      </trkpt>
      <trkpt lat="44.54812" lon="1.46307">
        <ele>327</ele>
        <time>2026-03-17T12:18:51Z</time>
      </trkpt>
      <trkpt lat="44.54813" lon="1.46283">
        <ele>328</ele>
        <time>2026-03-17T12:19:14Z</time>
      </trkpt>
      <trkpt lat="44.5481" lon="1.4627">
        <ele>327</ele>
        <time>2026-03-17T12:19:27Z</time>
      </trkpt>
      <trkpt lat="44.54763" lon="1.46139">
        <ele>317</ele>
        <time>2026-03-17T12:21:46Z</time>
      </trkpt>
      <trkpt lat="44.54759" lon="1.4612">
        <ele>317</ele>
        <time>2026-03-17T12:22:05Z</time>
      </trkpt>
      <trkpt lat="44.5475" lon="1.46115">
        <ele>317</ele>
        <time>2026-03-17T12:22:18Z</time>
      </trkpt>
      <trkpt lat="44.54752" lon="1.46097">
        <ele>317</ele>
        <time>2026-03-17T12:22:35Z</time>
      </trkpt>
      <trkpt lat="44.54751" lon="1.46078">
        <ele>317</ele>
        <time>2026-03-17T12:22:53Z</time>
      </trkpt>
      <trkpt lat="44.54741" lon="1.46043">
        <ele>316</ele>
        <time>2026-03-17T12:23:29Z</time>
      </trkpt>
      <trkpt lat="44.54743" lon="1.46034">
        <ele>316</ele>
        <time>2026-03-17T12:23:38Z</time>
      </trkpt>
      <trkpt lat="44.54735" lon="1.46024">
        <ele>315</ele>
        <time>2026-03-17T12:23:52Z</time>
      </trkpt>
      <trkpt lat="44.54727" lon="1.46007">
        <ele>315</ele>
        <time>2026-03-17T12:24:12Z</time>
      </trkpt>
      <trkpt lat="44.5471" lon="1.45987">
        <ele>315</ele>
        <time>2026-03-17T12:24:41Z</time>
      </trkpt>
      <trkpt lat="44.54671" lon="1.45959">
        <ele>314</ele>
        <time>2026-03-17T12:25:40Z</time>
      </trkpt>
      <trkpt lat="44.54661" lon="1.45958">
        <ele>313</ele>
        <time>2026-03-17T12:25:53Z</time>
      </trkpt>
      <trkpt lat="44.5464" lon="1.45944">
        <ele>312</ele>
        <time>2026-03-17T12:26:24Z</time>
      </trkpt>
      <trkpt lat="44.54629" lon="1.45935">
        <ele>312</ele>
        <time>2026-03-17T12:26:41Z</time>
      </trkpt>
      <trkpt lat="44.54623" lon="1.45922">
        <ele>312</ele>
        <time>2026-03-17T12:26:56Z</time>
      </trkpt>
      <trkpt lat="44.54618" lon="1.45905">
        <ele>313</ele>
        <time>2026-03-17T12:27:14Z</time>
      </trkpt>
      <trkpt lat="44.54614" lon="1.45874">
        <ele>312</ele>
        <time>2026-03-17T12:27:44Z</time>
      </trkpt>
      <trkpt lat="44.54601" lon="1.45836">
        <ele>310</ele>
        <time>2026-03-17T12:28:24Z</time>
      </trkpt>
      <trkpt lat="44.54594" lon="1.45784">
        <ele>308</ele>
        <time>2026-03-17T12:29:14Z</time>
      </trkpt>
      <trkpt lat="44.54587" lon="1.45773">
        <ele>306</ele>
        <time>2026-03-17T12:29:28Z</time>
      </trkpt>
      <trkpt lat="44.54588" lon="1.45715">
        <ele>306</ele>
        <time>2026-03-17T12:30:23Z</time>
      </trkpt>
      <trkpt lat="44.54584" lon="1.45671">
        <ele>306</ele>
        <time>2026-03-17T12:31:05Z</time>
      </trkpt>
      <trkpt lat="44.54579" lon="1.45649">
        <ele>306</ele>
        <time>2026-03-17T12:31:27Z</time>
      </trkpt>
      <trkpt lat="44.54569" lon="1.45624">
        <ele>305</ele>
        <time>2026-03-17T12:31:55Z</time>
      </trkpt>
      <trkpt lat="44.54564" lon="1.45584">
        <ele>308</ele>
        <time>2026-03-17T12:32:33Z</time>
      </trkpt>
      <trkpt lat="44.54552" lon="1.45554">
        <ele>307</ele>
        <time>2026-03-17T12:33:06Z</time>
      </trkpt>
      <trkpt lat="44.54544" lon="1.4554">
        <ele>306</ele>
        <time>2026-03-17T12:33:23Z</time>
      </trkpt>
      <trkpt lat="44.54524" lon="1.45526">
        <ele>305</ele>
        <time>2026-03-17T12:33:53Z</time>
      </trkpt>
      <trkpt lat="44.54517" lon="1.45517">
        <ele>305</ele>
        <time>2026-03-17T12:34:05Z</time>
      </trkpt>
      <trkpt lat="44.54505" lon="1.45519">
        <ele>304</ele>
        <time>2026-03-17T12:34:22Z</time>
      </trkpt>
      <trkpt lat="44.54486" lon="1.45507">
        <ele>302</ele>
        <time>2026-03-17T12:34:49Z</time>
      </trkpt>
      <trkpt lat="44.54462" lon="1.45501">
        <ele>300</ele>
        <time>2026-03-17T12:35:22Z</time>
      </trkpt>
      <trkpt lat="44.54435" lon="1.45473">
        <ele>298</ele>
        <time>2026-03-17T12:36:07Z</time>
      </trkpt>
      <trkpt lat="44.54414" lon="1.4546">
        <ele>296</ele>
        <time>2026-03-17T12:36:37Z</time>
      </trkpt>
      <trkpt lat="44.54386" lon="1.45414">
        <ele>293</ele>
        <time>2026-03-17T12:37:35Z</time>
      </trkpt>
      <trkpt lat="44.54355" lon="1.45373">
        <ele>292</ele>
        <time>2026-03-17T12:38:32Z</time>
      </trkpt>
      <trkpt lat="44.54346" lon="1.45365">
        <ele>292</ele>
        <time>2026-03-17T12:38:46Z</time>
      </trkpt>
      <trkpt lat="44.54332" lon="1.4534">
        <ele>293</ele>
        <time>2026-03-17T12:39:16Z</time>
      </trkpt>
      <trkpt lat="44.54315" lon="1.45316">
        <ele>292</ele>
        <time>2026-03-17T12:39:48Z</time>
      </trkpt>
      <trkpt lat="44.5427" lon="1.45196">
        <ele>299</ele>
        <time>2026-03-17T12:41:57Z</time>
      </trkpt>
      <trkpt lat="44.5426" lon="1.45182">
        <ele>301</ele>
        <time>2026-03-17T12:42:16Z</time>
      </trkpt>
      <trkpt lat="44.54233" lon="1.45124">
        <ele>301</ele>
        <time>2026-03-17T12:43:22Z</time>
      </trkpt>
      <trkpt lat="44.54195" lon="1.4502">
        <ele>302</ele>
        <time>2026-03-17T12:45:13Z</time>
      </trkpt>
      <trkpt lat="44.54192" lon="1.45004">
        <ele>302</ele>
        <time>2026-03-17T12:45:29Z</time>
      </trkpt>
      <trkpt lat="44.54191" lon="1.4497">
        <ele>305</ele>
        <time>2026-03-17T12:46:01Z</time>
      </trkpt>
      <trkpt lat="44.54186" lon="1.44966">
        <ele>306</ele>
        <time>2026-03-17T12:46:09Z</time>
      </trkpt>
      <trkpt lat="44.54187" lon="1.44968">
        <ele>305</ele>
        <time>2026-03-17T12:46:11Z</time>
      </trkpt>
      <trkpt lat="44.54189" lon="1.44959">
        <ele>306</ele>
        <time>2026-03-17T12:46:20Z</time>
      </trkpt>
      <trkpt lat="44.54187" lon="1.44956">
        <ele>307</ele>
        <time>2026-03-17T12:46:24Z</time>
      </trkpt>
      <trkpt lat="44.54185" lon="1.44963">
        <ele>306</ele>
        <time>2026-03-17T12:46:31Z</time>
      </trkpt>
      <trkpt lat="44.5418" lon="1.44966">
        <ele>305</ele>
        <time>2026-03-17T12:46:39Z</time>
      </trkpt>
      <trkpt lat="44.54152" lon="1.44938">
        <ele>305</ele>
        <time>2026-03-17T12:47:25Z</time>
      </trkpt>
      <trkpt lat="44.54137" lon="1.44918">
        <ele>305</ele>
        <time>2026-03-17T12:47:52Z</time>
      </trkpt>
      <trkpt lat="44.54129" lon="1.44901">
        <ele>305</ele>
        <time>2026-03-17T12:48:12Z</time>
      </trkpt>
      <trkpt lat="44.54109" lon="1.44882">
        <ele>304</ele>
        <time>2026-03-17T12:48:44Z</time>
      </trkpt>
      <trkpt lat="44.54102" lon="1.44867">
        <ele>304</ele>
        <time>2026-03-17T12:49:01Z</time>
      </trkpt>
      <trkpt lat="44.54097" lon="1.44833">
        <ele>306</ele>
        <time>2026-03-17T12:49:34Z</time>
      </trkpt>
      <trkpt lat="44.54091" lon="1.44823">
        <ele>304</ele>
        <time>2026-03-17T12:49:46Z</time>
      </trkpt>
      <trkpt lat="44.54084" lon="1.44812">
        <ele>302</ele>
        <time>2026-03-17T12:50:00Z</time>
      </trkpt>
      <trkpt lat="44.54074" lon="1.4481">
        <ele>301</ele>
        <time>2026-03-17T12:50:14Z</time>
      </trkpt>
      <trkpt lat="44.54069" lon="1.44804">
        <ele>300</ele>
        <time>2026-03-17T12:50:23Z</time>
      </trkpt>
      <trkpt lat="44.54081" lon="1.4477">
        <ele>298</ele>
        <time>2026-03-17T12:50:59Z</time>
      </trkpt>
      <trkpt lat="44.54085" lon="1.44746">
        <ele>296</ele>
        <time>2026-03-17T12:51:22Z</time>
      </trkpt>
      <trkpt lat="44.54082" lon="1.44712">
        <ele>291</ele>
        <time>2026-03-17T12:51:55Z</time>
      </trkpt>
      <trkpt lat="44.54077" lon="1.44696">
        <ele>287</ele>
        <time>2026-03-17T12:52:11Z</time>
      </trkpt>
      <trkpt lat="44.54069" lon="1.44651">
        <ele>279</ele>
        <time>2026-03-17T12:52:55Z</time>
      </trkpt>
      <trkpt lat="44.54061" lon="1.44621">
        <ele>272</ele>
        <time>2026-03-17T12:53:26Z</time>
      </trkpt>
      <trkpt lat="44.54057" lon="1.4462">
        <ele>271</ele>
        <time>2026-03-17T12:53:31Z</time>
      </trkpt>
      <trkpt lat="44.5406" lon="1.44597">
        <ele>269</ele>
        <time>2026-03-17T12:53:54Z</time>
      </trkpt>
      <trkpt lat="44.5406" lon="1.44578">
        <ele>267</ele>
        <time>2026-03-17T12:54:12Z</time>
      </trkpt>
      <trkpt lat="44.54057" lon="1.44567">
        <ele>265</ele>
        <time>2026-03-17T12:54:23Z</time>
      </trkpt>
      <trkpt lat="44.54062" lon="1.44557">
        <ele>266</ele>
        <time>2026-03-17T12:54:34Z</time>
      </trkpt>
      <trkpt lat="44.54064" lon="1.44514">
        <ele>263</ele>
        <time>2026-03-17T12:55:15Z</time>
      </trkpt>
      <trkpt lat="44.54066" lon="1.44508">
        <ele>263</ele>
        <time>2026-03-17T12:55:22Z</time>
      </trkpt>
      <trkpt lat="44.54061" lon="1.4449">
        <ele>262</ele>
        <time>2026-03-17T12:55:40Z</time>
      </trkpt>
      <trkpt lat="44.54042" lon="1.44511">
        <ele>257</ele>
        <time>2026-03-17T12:56:12Z</time>
      </trkpt>
      <trkpt lat="44.54027" lon="1.4452">
        <ele>253</ele>
        <time>2026-03-17T12:56:34Z</time>
      </trkpt>
      <trkpt lat="44.5402" lon="1.44528">
        <ele>251</ele>
        <time>2026-03-17T12:56:46Z</time>
      </trkpt>
      <trkpt lat="44.54014" lon="1.44529">
        <ele>249</ele>
        <time>2026-03-17T12:56:54Z</time>
      </trkpt>
      <trkpt lat="44.54005" lon="1.44523">
        <ele>246</ele>
        <time>2026-03-17T12:57:08Z</time>
      </trkpt>
      <trkpt lat="44.54012" lon="1.44526">
        <ele>248</ele>
        <time>2026-03-17T12:57:17Z</time>
      </trkpt>
      <trkpt lat="44.54012" lon="1.44529">
        <ele>248</ele>
        <time>2026-03-17T12:57:20Z</time>
      </trkpt>
      <trkpt lat="44.53994" lon="1.44529">
        <ele>244</ele>
        <time>2026-03-17T12:57:44Z</time>
      </trkpt>
      <trkpt lat="44.53981" lon="1.44526">
        <ele>243</ele>
        <time>2026-03-17T12:58:02Z</time>
      </trkpt>
      <trkpt lat="44.53961" lon="1.44527">
        <ele>240</ele>
        <time>2026-03-17T12:58:28Z</time>
      </trkpt>
      <trkpt lat="44.5395" lon="1.4453">
        <ele>239</ele>
        <time>2026-03-17T12:58:43Z</time>
      </trkpt>
      <trkpt lat="44.53942" lon="1.44528">
        <ele>238</ele>
        <time>2026-03-17T12:58:54Z</time>
      </trkpt>
      <trkpt lat="44.53916" lon="1.44529">
        <ele>235</ele>
        <time>2026-03-17T12:59:29Z</time>
      </trkpt>
      <trkpt lat="44.53903" lon="1.44535">
        <ele>233</ele>
        <time>2026-03-17T12:59:47Z</time>
      </trkpt>
      <trkpt lat="44.53877" lon="1.44537">
        <ele>230</ele>
        <time>2026-03-17T13:00:22Z</time>
      </trkpt>
      <trkpt lat="44.53822" lon="1.44532">
        <ele>224</ele>
        <time>2026-03-17T13:01:36Z</time>
      </trkpt>
      <trkpt lat="44.53813" lon="1.44528">
        <ele>223</ele>
        <time>2026-03-17T13:01:48Z</time>
      </trkpt>
      <trkpt lat="44.53808" lon="1.44529">
        <ele>222</ele>
        <time>2026-03-17T13:01:55Z</time>
      </trkpt>
      <trkpt lat="44.53806" lon="1.44527">
        <ele>222</ele>
        <time>2026-03-17T13:01:58Z</time>
      </trkpt>
      <trkpt lat="44.53808" lon="1.44525">
        <ele>222</ele>
        <time>2026-03-17T13:02:01Z</time>
      </trkpt>
      <trkpt lat="44.53807" lon="1.445">
        <ele>223</ele>
        <time>2026-03-17T13:02:25Z</time>
      </trkpt>
      <trkpt lat="44.53802" lon="1.44487">
        <ele>223</ele>
        <time>2026-03-17T13:02:39Z</time>
      </trkpt>
      <trkpt lat="44.53798" lon="1.44447">
        <ele>226</ele>
        <time>2026-03-17T13:03:18Z</time>
      </trkpt>
      <trkpt lat="44.53793" lon="1.44422">
        <ele>227</ele>
        <time>2026-03-17T13:03:42Z</time>
      </trkpt>
      <trkpt lat="44.53781" lon="1.44399">
        <ele>224</ele>
        <time>2026-03-17T13:04:10Z</time>
      </trkpt>
      <trkpt lat="44.53772" lon="1.44416">
        <ele>222</ele>
        <time>2026-03-17T13:04:30Z</time>
      </trkpt>
      <trkpt lat="44.5375" lon="1.44423">
        <ele>215</ele>
        <time>2026-03-17T13:05:00Z</time>
      </trkpt>
      <trkpt lat="44.53739" lon="1.44436">
        <ele>214</ele>
        <time>2026-03-17T13:05:19Z</time>
      </trkpt>
      <trkpt lat="44.53719" lon="1.44438">
        <ele>214</ele>
        <time>2026-03-17T13:05:46Z</time>
      </trkpt>
      <trkpt lat="44.53676" lon="1.44423">
        <ele>212</ele>
        <time>2026-03-17T13:06:45Z</time>
      </trkpt>
      <trkpt lat="44.5366" lon="1.44425">
        <ele>212</ele>
        <time>2026-03-17T13:07:06Z</time>
      </trkpt>
      <trkpt lat="44.53656" lon="1.44434">
        <ele>213</ele>
        <time>2026-03-17T13:07:16Z</time>
      </trkpt>
      <trkpt lat="44.5366" lon="1.4444">
        <ele>213</ele>
        <time>2026-03-17T13:07:24Z</time>
      </trkpt>
      <trkpt lat="44.53656" lon="1.44438">
        <ele>213</ele>
        <time>2026-03-17T13:07:30Z</time>
      </trkpt>
      <trkpt lat="44.53653" lon="1.44426">
        <ele>213</ele>
        <time>2026-03-17T13:07:42Z</time>
      </trkpt>
      <trkpt lat="44.53651" lon="1.44427">
        <ele>213</ele>
        <time>2026-03-17T13:07:45Z</time>
      </trkpt>
      <trkpt lat="44.5365" lon="1.44425">
        <ele>213</ele>
        <time>2026-03-17T13:07:47Z</time>
      </trkpt>
      <trkpt lat="44.53653" lon="1.44421">
        <ele>212</ele>
        <time>2026-03-17T13:07:53Z</time>
      </trkpt>
      <trkpt lat="44.53646" lon="1.44403">
        <ele>213</ele>
        <time>2026-03-17T13:08:12Z</time>
      </trkpt>
      <trkpt lat="44.53634" lon="1.44398">
        <ele>213</ele>
        <time>2026-03-17T13:08:29Z</time>
      </trkpt>
      <trkpt lat="44.53626" lon="1.44391">
        <ele>214</ele>
        <time>2026-03-17T13:08:41Z</time>
      </trkpt>
      <trkpt lat="44.53626" lon="1.44377">
        <ele>214</ele>
        <time>2026-03-17T13:08:55Z</time>
      </trkpt>
      <trkpt lat="44.53615" lon="1.44358">
        <ele>215</ele>
        <time>2026-03-17T13:09:18Z</time>
      </trkpt>
      <trkpt lat="44.53619" lon="1.44343">
        <ele>215</ele>
        <time>2026-03-17T13:09:33Z</time>
      </trkpt>
      <trkpt lat="44.53632" lon="1.4432">
        <ele>215</ele>
        <time>2026-03-17T13:10:01Z</time>
      </trkpt>
      <trkpt lat="44.53624" lon="1.44302">
        <ele>217</ele>
        <time>2026-03-17T13:10:21Z</time>
      </trkpt>
      <trkpt lat="44.53622" lon="1.44303">
        <ele>217</ele>
        <time>2026-03-17T13:10:24Z</time>
      </trkpt>
      <trkpt lat="44.5362" lon="1.443">
        <ele>218</ele>
        <time>2026-03-17T13:10:28Z</time>
      </trkpt>
      <trkpt lat="44.53626" lon="1.44293">
        <ele>218</ele>
        <time>2026-03-17T13:10:39Z</time>
      </trkpt>
      <trkpt lat="44.53641" lon="1.44294">
        <ele>216</ele>
        <time>2026-03-17T13:10:59Z</time>
      </trkpt>
      <trkpt lat="44.53645" lon="1.44292">
        <ele>216</ele>
        <time>2026-03-17T13:11:04Z</time>
      </trkpt>
    </trkseg>
  </trk>
</gpx>